createdAt,value
2019-04-20T00:00:49.146Z,22.20
2019-04-20T00:03:12.172Z,19.17
2019-04-20T00:05:39.192Z,18.85
2019-04-20T00:08:08.912Z,16.77
2019-04-20T00:10:42.510Z,18.45
2019-04-20T00:13:17.628Z,19.77
2019-04-20T00:15:32.122Z,19.60
2019-04-20T00:18:03.083Z,17.45
2019-04-20T00:20:32.028Z,19.70
2019-04-20T00:22:57.887Z,16.82
2019-04-20T00:25:38.599Z,18.80
2019-04-20T00:28:11.973Z,18.80
2019-04-20T00:30:45.096Z,16.80
2019-04-20T00:32:58.572Z,19.05
2019-04-20T00:35:18.851Z,16.70
2019-04-20T00:37:46.456Z,18.07
2019-04-20T00:40:13.412Z,17.17
2019-04-20T00:42:45.765Z,17.00
2019-04-20T00:45:16.217Z,18.15
2019-04-20T00:47:47.709Z,18.20
2019-04-20T00:50:25.868Z,17.67
2019-04-20T00:52:51.432Z,17.70
2019-04-20T00:55:02.369Z,16.60
2019-04-20T00:57:41.395Z,16.17
2019-04-20T01:00:19.190Z,14.18
2019-04-20T01:02:40.664Z,18.02
2019-04-20T01:05:15.197Z,15.53
2019-04-20T01:07:32.867Z,18.20
2019-04-20T01:09:52.233Z,15.35
2019-04-20T01:12:24.234Z,17.05
2019-04-20T01:14:55.150Z,16.62
2019-04-20T01:17:15.444Z,16.17
2019-04-20T01:19:42.061Z,18.32
2019-04-20T01:22:14.744Z,19.52
2019-04-20T01:24:40.499Z,18.20
2019-04-20T01:27:10.928Z,16.30
2019-04-20T01:29:42.628Z,17.35
2019-04-20T01:32:10.462Z,19.48
2019-04-20T01:34:41.723Z,17.00
2019-04-20T01:37:14.679Z,17.62
2019-04-20T01:39:35.334Z,16.32
2019-04-20T01:41:56.133Z,19.25
2019-04-20T01:44:26.161Z,18.07
2019-04-20T01:46:55.230Z,13.75
2019-04-20T01:49:23.840Z,17.70
2019-04-20T01:51:57.686Z,20.43
2019-04-20T01:54:34.041Z,19.77
2019-04-20T01:56:57.027Z,16.40
2019-04-20T01:59:22.992Z,15.93
2019-04-20T02:01:42.815Z,21.57
2019-04-20T02:04:15.792Z,15.43
2019-04-20T02:06:43.416Z,22.00
2019-04-20T02:09:11.986Z,18.60
2019-04-20T02:11:39.343Z,21.50
2019-04-20T02:14:06.956Z,20.20
2019-04-20T02:16:38.284Z,18.17
2019-04-20T02:19:16.018Z,18.90
2019-04-20T02:21:48.505Z,17.77
2019-04-20T02:24:01.268Z,18.25
2019-04-20T02:26:26.075Z,18.50
2019-04-20T02:29:20.255Z,17.90
2019-04-20T02:32:06.648Z,15.25
2019-04-20T02:34:26.085Z,19.27
2019-04-20T02:39:30.875Z,18.73
2019-04-20T02:41:54.285Z,18.07
2019-04-20T02:44:27.118Z,22.37
2019-04-20T02:46:51.053Z,18.70
2019-04-20T02:49:26.118Z,19.03
2019-04-20T02:56:39.401Z,21.20
2019-04-20T02:59:31.545Z,19.17
2019-04-20T03:01:25.295Z,22.70
2019-04-20T03:03:38.609Z,17.07
2019-04-20T03:06:13.393Z,20.30
2019-04-20T03:08:53.242Z,20.33
2019-04-20T03:11:22.455Z,18.93
2019-04-20T03:13:44.139Z,19.73
2019-04-20T03:16:14.421Z,16.93
2019-04-20T03:18:39.871Z,16.07
2019-04-20T03:21:12.830Z,18.93
2019-04-20T03:23:42.822Z,17.57
2019-04-20T03:26:06.453Z,22.60
2019-04-20T03:28:32.865Z,18.63
2019-04-20T03:36:16.244Z,18.60
2019-04-20T03:38:30.203Z,19.07
2019-04-20T03:40:48.335Z,20.93
2019-04-20T03:43:03.861Z,20.53
2019-04-20T03:45:37.435Z,19.77
2019-04-20T03:48:11.572Z,19.00
2019-04-20T03:50:46.740Z,19.63
2019-04-20T03:53:19.916Z,17.73
2019-04-20T03:55:39.686Z,19.73
2019-04-20T03:58:14.299Z,17.67
2019-04-20T04:00:36.500Z,17.50
2019-04-20T04:03:21.695Z,21.33
2019-04-20T04:05:40.098Z,19.60
2019-04-20T04:08:02.295Z,20.20
2019-04-20T04:10:29.230Z,22.20
2019-04-20T04:12:46.769Z,19.67
2019-04-20T04:15:12.707Z,21.07
2019-04-20T04:17:43.217Z,19.30
2019-04-20T04:20:13.098Z,18.23
2019-04-20T04:22:50.030Z,18.37
2019-04-20T04:25:18.467Z,19.23
2019-04-20T04:27:52.970Z,19.73
2019-04-20T04:30:14.198Z,18.70
2019-04-20T04:33:10.912Z,20.33
2019-04-20T04:35:09.203Z,18.70
2019-04-20T04:37:45.917Z,19.70
2019-04-20T04:40:26.449Z,17.33
2019-04-20T04:42:48.187Z,15.77
2019-04-20T04:45:00.590Z,15.27
2019-04-20T04:47:20.199Z,15.57
2019-04-20T04:49:55.225Z,17.93
2019-04-20T04:52:19.165Z,17.37
2019-04-20T04:54:52.741Z,15.03
2019-04-20T04:57:11.718Z,17.13
2019-04-20T04:59:38.510Z,15.50
2019-04-20T05:02:05.392Z,16.80
2019-04-20T05:04:59.986Z,16.60
2019-04-20T05:07:11.495Z,15.53
2019-04-20T05:09:29.618Z,14.57
2019-04-20T05:12:03.969Z,15.65
2019-04-20T05:14:39.787Z,14.73
2019-04-20T05:17:07.681Z,14.17
2019-04-20T05:19:41.643Z,13.77
2019-04-20T05:22:16.023Z,16.05
2019-04-20T05:24:37.287Z,15.28
2019-04-20T05:27:11.659Z,15.88
2019-04-20T05:29:19.421Z,15.32
2019-04-20T05:31:50.328Z,15.03
2019-04-20T05:34:30.922Z,15.00
2019-04-20T05:36:57.971Z,16.12
2019-04-20T05:39:32.671Z,17.45
2019-04-20T05:41:51.736Z,16.42
2019-04-20T05:44:19.593Z,13.65
2019-04-20T05:46:59.975Z,15.32
2019-04-20T05:49:23.100Z,15.20
2019-04-20T05:51:48.677Z,16.82
2019-04-20T05:54:21.005Z,18.45
2019-04-20T05:56:46.237Z,14.80
2019-04-20T05:59:15.008Z,17.02
2019-04-20T06:01:49.932Z,15.65
2019-04-20T06:04:05.455Z,14.47
2019-04-20T06:06:45.108Z,13.95
2019-04-20T06:09:12.037Z,13.05
2019-04-20T06:11:44.479Z,14.75
2019-04-20T06:13:56.917Z,16.37
2019-04-20T06:16:42.644Z,16.87
2019-04-20T06:19:18.780Z,14.15
2019-04-20T06:21:37.991Z,15.83
2019-04-20T06:24:05.046Z,14.55
2019-04-20T06:26:44.128Z,16.02
2019-04-20T06:28:48.920Z,19.25
2019-04-20T06:31:26.721Z,19.10
2019-04-20T06:34:08.926Z,18.52
2019-04-20T06:36:29.195Z,17.40
2019-04-20T06:38:55.773Z,19.45
2019-04-20T06:41:26.513Z,23.55
2019-04-20T06:43:55.999Z,21.57
2019-04-20T06:46:20.235Z,21.75
2019-04-20T06:48:49.974Z,21.80
2019-04-20T06:51:10.798Z,15.03
2019-04-20T06:53:45.046Z,16.95
2019-04-20T06:56:13.926Z,17.65
2019-04-20T06:58:43.714Z,15.63
2019-04-20T07:01:05.680Z,14.93
2019-04-20T07:03:42.139Z,17.17
2019-04-20T07:06:06.403Z,15.50
2019-04-20T07:11:05.896Z,15.70
2019-04-20T07:13:19.294Z,14.20
2019-04-20T07:15:46.513Z,14.87
2019-04-20T07:18:26.184Z,14.20
2019-04-20T07:20:55.394Z,11.75
2019-04-20T07:25:48.840Z,13.90
2019-04-20T07:28:24.138Z,13.43
2019-04-20T07:30:46.545Z,14.93
2019-04-20T07:33:19.972Z,12.88
2019-04-20T07:35:40.450Z,15.28
2019-04-20T07:38:23.383Z,13.40
2019-04-20T07:40:35.976Z,13.18
2019-04-20T07:43:02.791Z,12.70
2019-04-20T07:48:09.328Z,14.50
2019-04-20T07:50:26.677Z,15.38
2019-04-20T07:52:51.691Z,14.38
2019-04-20T07:57:52.593Z,12.58
2019-04-20T08:00:26.345Z,17.20
2019-04-20T08:02:57.255Z,14.05
2019-04-20T08:05:15.415Z,14.25
2019-04-20T08:07:46.285Z,12.95
2019-04-20T08:10:09.991Z,12.68
2019-04-20T08:13:00.772Z,11.38
2019-04-20T08:15:39.170Z,9.33
2019-04-20T08:17:56.898Z,12.10
2019-04-20T08:20:16.142Z,13.15
2019-04-20T08:22:47.930Z,13.53
2019-04-20T08:25:12.579Z,13.43
2019-04-20T08:27:23.811Z,10.63
2019-04-20T08:30:03.477Z,10.03
2019-04-20T08:32:37.754Z,11.08
2019-04-20T08:35:14.314Z,10.93
2019-04-20T08:37:32.092Z,12.73
2019-04-20T08:40:06.823Z,10.23
2019-04-20T08:42:39.955Z,10.85
2019-04-20T08:45:08.386Z,15.03
2019-04-20T08:47:39.547Z,13.13
2019-04-20T08:50:03.418Z,10.65
2019-04-20T08:52:47.112Z,7.00
2019-04-20T08:54:56.965Z,7.42
2019-04-20T08:57:03.722Z,7.20
2019-04-20T08:59:33.447Z,5.33
2019-04-20T09:02:05.137Z,5.45
2019-04-20T09:04:38.599Z,5.78
2019-04-20T09:07:06.474Z,5.03
2019-04-20T09:09:52.727Z,5.97
2019-04-20T09:14:25.591Z,4.53
2019-04-20T09:16:59.754Z,5.50
2019-04-20T09:19:32.045Z,5.90
2019-04-20T09:21:54.916Z,5.12
2019-04-20T09:24:36.853Z,3.83
2019-04-20T09:27:04.607Z,2.80
2019-04-20T09:29:31.930Z,3.05
2019-04-20T09:32:00.319Z,2.67
2019-04-20T09:34:29.237Z,3.45
2019-04-20T09:36:49.612Z,3.55
2019-04-20T09:39:15.002Z,3.83
2019-04-20T09:41:58.126Z,3.65
2019-04-20T09:44:04.678Z,2.95
2019-04-20T09:46:37.846Z,4.55
2019-04-20T09:49:12.206Z,4.53
2019-04-20T09:51:43.614Z,2.90
2019-04-20T09:54:12.470Z,3.22
2019-04-20T09:56:41.948Z,3.42
2019-04-20T09:59:12.342Z,3.12
2019-04-20T10:01:31.144Z,3.50
2019-04-20T10:03:50.313Z,3.65
2019-04-20T10:06:17.998Z,3.42
2019-04-20T10:08:50.759Z,3.12
2019-04-20T10:11:13.926Z,2.40
2019-04-20T10:13:40.552Z,2.98
2019-04-20T10:16:08.017Z,2.58
2019-04-20T10:18:41.426Z,2.85
2019-04-20T10:21:03.071Z,3.33
2019-04-20T10:23:30.290Z,3.72
2019-04-20T10:25:58.454Z,3.08
2019-04-20T10:28:25.602Z,2.55
2019-04-20T10:30:52.639Z,3.30
2019-04-20T10:33:19.591Z,2.87
2019-04-20T10:35:47.613Z,2.90
2019-04-20T10:38:15.641Z,3.37
2019-04-20T10:40:52.976Z,3.70
2019-04-20T10:43:12.020Z,2.77
2019-04-20T10:45:39.200Z,3.77
2019-04-20T10:48:05.893Z,4.92
2019-04-20T10:50:32.508Z,2.95
2019-04-20T10:52:59.628Z,3.47
2019-04-20T10:55:27.236Z,3.60
2019-04-20T10:57:53.937Z,3.40
2019-04-20T11:00:21.631Z,3.80
2019-04-20T11:02:50.489Z,4.22
2019-04-20T11:05:16.980Z,4.50
2019-04-20T11:07:44.322Z,3.47
2019-04-20T11:10:15.750Z,3.67
2019-04-20T11:12:40.120Z,4.17
2019-04-20T11:15:08.275Z,3.70
2019-04-20T11:17:35.395Z,3.40
2019-04-20T11:20:03.275Z,4.05
2019-04-20T11:22:30.527Z,3.70
2019-04-20T11:24:58.472Z,3.47
2019-04-20T11:27:25.827Z,4.10
2019-04-20T11:29:52.454Z,4.62
2019-04-20T11:32:20.203Z,3.47
2019-04-20T11:34:47.167Z,4.28
2019-04-20T11:37:15.145Z,4.62
2019-04-20T11:39:43.072Z,4.15
2019-04-20T11:42:10.052Z,3.90
2019-04-20T11:44:38.113Z,4.17
2019-04-20T11:47:06.314Z,4.60
2019-04-20T11:49:33.359Z,4.55
2019-04-20T11:52:01.404Z,4.70
2019-04-20T11:54:28.345Z,5.17
2019-04-20T11:56:55.492Z,4.70
2019-04-20T11:59:23.149Z,4.47
2019-04-20T12:01:56.539Z,4.95
2019-04-20T12:04:30.688Z,4.70
2019-04-20T12:06:46.666Z,5.30
2019-04-20T12:09:13.303Z,5.45
2019-04-20T12:11:53.496Z,4.85
2019-04-20T12:14:08.209Z,4.92
2019-04-20T12:16:35.259Z,5.28
2019-04-20T12:19:02.256Z,3.35
2019-04-20T12:21:29.064Z,3.85
2019-04-20T12:23:56.176Z,4.30
2019-04-20T12:26:23.061Z,3.72
2019-04-20T12:28:49.777Z,4.25
2019-04-20T12:31:20.426Z,4.15
2019-04-20T12:33:44.718Z,4.15
2019-04-20T12:36:12.250Z,3.55
2019-04-20T12:38:39.181Z,3.77
2019-04-20T12:41:07.738Z,3.15
2019-04-20T12:43:34.181Z,4.53
2019-04-20T12:46:02.088Z,3.35
2019-04-20T12:48:29.343Z,4.03
2019-04-20T12:50:57.261Z,3.12
2019-04-20T12:53:24.508Z,3.35
2019-04-20T12:55:52.603Z,2.87
2019-04-20T12:58:20.714Z,2.95
2019-04-20T13:00:49.835Z,3.55
2019-04-20T13:03:17.173Z,3.47
2019-04-20T13:05:43.895Z,3.10
2019-04-20T13:08:13.740Z,3.10
2019-04-20T13:10:40.116Z,2.95
2019-04-20T13:13:08.086Z,3.62
2019-04-20T13:15:36.315Z,3.45
2019-04-20T13:18:03.292Z,2.37
2019-04-20T13:20:30.117Z,3.25
2019-04-20T13:22:57.165Z,3.27
2019-04-20T13:25:25.081Z,3.45
2019-04-20T13:27:52.749Z,3.83
2019-04-20T13:30:19.725Z,3.15
2019-04-20T13:32:47.709Z,3.50
2019-04-20T13:35:14.428Z,3.27
2019-04-20T13:37:42.320Z,3.08
2019-04-20T13:40:09.390Z,3.37
2019-04-20T13:42:36.467Z,3.70
2019-04-20T13:45:04.303Z,3.52
2019-04-20T13:47:32.737Z,3.75
2019-04-20T13:49:59.840Z,3.33
2019-04-20T13:52:28.560Z,3.37
2019-04-20T13:54:55.916Z,4.00
2019-04-20T13:57:23.686Z,3.75
2019-04-20T13:59:50.506Z,2.40
2019-04-20T14:02:20.509Z,3.65
2019-04-20T14:04:48.588Z,3.37
2019-04-20T14:07:16.782Z,4.47
2019-04-20T14:09:43.699Z,3.08
2019-04-20T14:12:16.222Z,3.45
2019-04-20T14:14:39.261Z,3.40
2019-04-20T14:17:07.413Z,3.98
2019-04-20T14:19:34.809Z,3.10
2019-04-20T14:22:02.120Z,4.37
2019-04-20T14:24:28.979Z,3.80
2019-04-20T14:26:56.907Z,3.60
2019-04-20T14:29:25.081Z,3.55
2019-04-20T14:31:52.088Z,4.50
2019-04-20T14:34:18.756Z,3.87
2019-04-20T14:36:46.675Z,3.17
2019-04-20T14:39:14.107Z,3.47
2019-04-20T14:41:40.761Z,4.17
2019-04-20T14:44:07.931Z,3.40
2019-04-20T14:46:35.768Z,3.33
2019-04-20T14:49:02.902Z,3.20
2019-04-20T14:51:29.851Z,3.50
2019-04-20T14:53:56.465Z,4.03
2019-04-20T14:56:23.427Z,2.37
2019-04-20T14:58:51.364Z,3.10
2019-04-20T15:01:18.577Z,3.08
2019-04-20T15:03:45.498Z,2.77
2019-04-20T15:06:13.606Z,2.83
2019-04-20T15:08:40.770Z,5.22
2019-04-20T15:11:07.498Z,3.00
2019-04-20T15:13:34.930Z,2.95
2019-04-20T15:16:02.434Z,3.70
2019-04-20T15:18:29.395Z,2.70
2019-04-20T15:20:57.358Z,2.45
2019-04-20T15:23:24.008Z,2.52
2019-04-20T15:25:50.672Z,2.70
2019-04-20T15:28:18.555Z,2.77
2019-04-20T15:30:45.329Z,3.35
2019-04-20T15:33:12.705Z,2.75
2019-04-20T15:35:40.070Z,3.33
2019-04-20T15:38:07.101Z,3.00
2019-04-20T15:40:34.971Z,2.77
2019-04-20T15:43:11.823Z,3.05
2019-04-20T15:45:31.394Z,3.08
2019-04-20T15:47:59.400Z,3.08
2019-04-20T15:50:27.584Z,3.35
2019-04-20T15:52:56.568Z,2.98
2019-04-20T15:55:27.496Z,3.58
2019-04-20T15:57:50.887Z,3.42
2019-04-20T16:00:18.424Z,3.62
2019-04-20T16:02:45.401Z,4.05
2019-04-20T16:05:12.407Z,3.67
2019-04-20T16:07:46.582Z,3.90
2019-04-20T16:10:07.486Z,3.72
2019-04-20T16:12:35.148Z,3.08
2019-04-20T16:15:02.087Z,3.50
2019-04-20T16:17:33.660Z,3.42
2019-04-20T16:20:03.892Z,4.75
2019-04-20T16:22:25.835Z,4.65
2019-04-20T16:24:53.735Z,4.87
2019-04-20T16:27:20.453Z,4.80
2019-04-20T16:29:47.380Z,4.22
2019-04-20T16:32:14.424Z,4.10
2019-04-20T16:34:42.495Z,4.35
2019-04-20T16:37:10.575Z,3.37
2019-04-20T16:39:38.567Z,3.77
2019-04-20T16:42:06.448Z,3.60
2019-04-20T16:44:35.594Z,3.70
2019-04-20T16:47:02.254Z,3.20
2019-04-20T16:49:28.891Z,3.50
2019-04-20T16:51:56.878Z,3.58
2019-04-20T16:54:23.840Z,3.12
2019-04-20T16:56:50.784Z,2.95
2019-04-20T16:59:19.186Z,3.33
2019-04-20T17:01:46.658Z,4.30
2019-04-20T17:04:18.596Z,3.62
2019-04-20T17:06:42.358Z,3.83
2019-04-20T17:09:10.073Z,4.60
2019-04-20T17:11:37.592Z,4.72
2019-04-20T17:14:04.162Z,4.17
2019-04-20T17:16:31.653Z,4.75
2019-04-20T17:18:59.637Z,4.53
2019-04-20T17:21:28.872Z,4.92
2019-04-20T17:23:55.463Z,5.40
2019-04-20T17:26:23.111Z,5.97
2019-04-20T17:28:52.403Z,6.67
2019-04-20T17:31:19.664Z,7.15
2019-04-20T17:33:58.432Z,7.05
2019-04-20T17:36:19.792Z,5.75
2019-04-20T17:38:48.479Z,4.92
2019-04-20T17:41:32.400Z,5.12
2019-04-20T17:44:01.497Z,4.75
2019-04-20T17:46:23.689Z,5.33
2019-04-20T17:48:51.367Z,6.30
2019-04-20T17:51:28.684Z,6.45
2019-04-20T17:53:41.814Z,6.60
2019-04-20T17:56:03.529Z,5.20
2019-04-20T17:58:34.424Z,5.72
2019-04-20T18:00:59.903Z,5.15
2019-04-20T18:03:58.951Z,7.20
2019-04-20T18:06:14.542Z,8.70
2019-04-20T18:08:41.397Z,9.55
2019-04-20T18:11:01.853Z,7.35
2019-04-20T18:13:24.000Z,6.35
2019-04-20T18:16:04.588Z,5.30
2019-04-20T18:18:33.661Z,6.58
2019-04-20T18:20:45.056Z,5.30
2019-04-20T18:23:12.926Z,6.58
2019-04-20T18:26:07.842Z,6.05
2019-04-20T18:28:20.925Z,8.28
2019-04-20T18:30:44.810Z,9.08
2019-04-20T18:33:05.403Z,6.30
2019-04-20T18:35:34.775Z,6.12
2019-04-20T18:38:04.644Z,10.18
2019-04-20T18:40:37.231Z,7.22
2019-04-20T18:43:05.248Z,9.88
2019-04-20T18:45:41.049Z,9.73
2019-04-20T18:48:11.471Z,9.23
2019-04-20T18:50:27.386Z,8.93
2019-04-20T18:52:51.651Z,7.75
2019-04-20T18:55:27.473Z,8.70
2019-04-20T18:57:47.045Z,12.40
2019-04-20T19:00:20.094Z,12.68
2019-04-20T19:02:46.905Z,10.68
2019-04-20T19:05:11.423Z,12.00
2019-04-20T19:07:43.648Z,10.20
2019-04-20T19:10:14.535Z,10.25
2019-04-20T19:12:43.991Z,13.15
2019-04-20T19:15:28.258Z,12.47
2019-04-20T19:20:20.587Z,12.65
2019-04-20T19:22:48.266Z,12.43
2019-04-20T19:25:18.396Z,11.25
2019-04-20T19:27:48.893Z,9.48
2019-04-20T19:30:26.666Z,11.18
2019-04-20T19:33:01.036Z,11.90
2019-04-20T19:35:24.344Z,12.98
2019-04-20T19:37:51.648Z,15.63
2019-04-20T19:40:15.939Z,17.45
2019-04-20T19:42:45.509Z,18.00
2019-04-20T19:45:30.131Z,17.95
2019-04-20T19:47:48.082Z,29.18
2019-04-20T19:50:25.166Z,24.37
2019-04-20T19:52:53.164Z,22.00
2019-04-20T19:55:14.735Z,24.57
2019-04-20T19:57:42.862Z,26.27
2019-04-20T19:59:55.815Z,19.37
2019-04-20T20:02:19.829Z,16.35
2019-04-20T20:04:50.802Z,18.05
2019-04-20T20:07:21.898Z,18.32
2019-04-20T20:09:49.749Z,32.58
2019-04-20T20:12:14.741Z,29.67
2019-04-20T20:14:45.669Z,19.80
2019-04-20T20:17:27.367Z,17.37
2019-04-20T20:20:03.988Z,17.32
2019-04-20T20:22:17.207Z,18.00
2019-04-20T20:24:33.372Z,17.35
2019-04-20T20:27:06.129Z,18.85
2019-04-20T20:29:37.629Z,19.32
2019-04-20T20:32:13.255Z,18.50
2019-04-20T20:34:32.406Z,19.67
2019-04-20T20:37:00.034Z,17.45
2019-04-20T20:39:27.731Z,17.95
2019-04-20T20:42:04.737Z,17.23
2019-04-20T20:44:27.625Z,16.45
2019-04-20T20:47:10.616Z,16.55
2019-04-20T20:49:33.189Z,15.05
2019-04-20T20:52:02.198Z,15.35
2019-04-20T20:54:28.376Z,15.60
2019-04-20T20:56:49.972Z,17.55
2019-04-20T20:59:13.965Z,17.37
2019-04-20T21:01:46.453Z,18.80
2019-04-20T21:04:05.086Z,18.62
2019-04-20T21:06:32.830Z,18.40
2019-04-20T21:09:01.338Z,20.75
2019-04-20T21:11:31.425Z,16.67
2019-04-20T21:13:57.463Z,20.05
2019-04-20T21:16:30.892Z,19.15
2019-04-20T21:19:10.626Z,19.23
2019-04-20T21:21:38.829Z,26.42
2019-04-20T21:23:58.185Z,18.07
2019-04-20T21:26:25.841Z,18.73
2019-04-20T21:28:45.841Z,22.15
2019-04-20T21:31:16.846Z,23.67
2019-04-20T21:33:41.014Z,18.95
2019-04-20T21:36:09.106Z,20.95
2019-04-20T21:38:40.742Z,20.10
2019-04-20T21:41:09.342Z,17.37
2019-04-20T21:43:37.262Z,17.05
2019-04-20T21:46:04.938Z,17.52
2019-04-20T21:48:43.945Z,17.05
2019-04-20T21:51:13.421Z,17.17
2019-04-20T21:53:31.359Z,15.80
2019-04-20T21:55:55.189Z,14.80
2019-04-20T21:58:29.623Z,14.98
2019-04-20T22:01:02.139Z,15.65
2019-04-20T22:03:18.647Z,13.40
2019-04-20T22:05:46.474Z,13.28
2019-04-20T22:08:16.058Z,14.55
2019-04-20T22:10:42.901Z,13.58
2019-04-20T22:13:09.965Z,14.40
2019-04-20T22:15:46.637Z,13.43
2019-04-20T22:18:09.419Z,12.70
2019-04-20T22:20:48.057Z,14.03
2019-04-20T22:23:13.795Z,13.43
2019-04-20T22:25:50.543Z,13.22
2019-04-20T22:28:00.613Z,13.55
2019-04-20T22:30:28.130Z,14.83
2019-04-20T22:32:55.271Z,14.73
2019-04-20T22:35:24.410Z,14.15
2019-04-20T22:37:52.036Z,15.25
2019-04-20T22:40:25.090Z,13.65
2019-04-20T22:42:51.665Z,14.98
2019-04-20T22:45:17.272Z,13.65
2019-04-20T22:47:43.998Z,14.90
2019-04-20T22:50:29.028Z,13.13
2019-04-20T22:52:50.207Z,12.68
2019-04-20T22:55:30.052Z,15.78
2019-04-20T22:57:48.726Z,12.78
2019-04-20T23:00:12.294Z,15.78
2019-04-20T23:02:33.255Z,13.62
2019-04-20T23:05:00.689Z,12.95
2019-04-20T23:07:28.483Z,13.55
2019-04-20T23:09:59.426Z,12.88
2019-04-20T23:12:26.308Z,15.63
2019-04-20T23:14:52.309Z,15.90
2019-04-20T23:17:26.942Z,13.93
2019-04-20T23:19:52.651Z,14.18
2019-04-20T23:22:17.450Z,14.23
2019-04-20T23:24:44.866Z,14.03
2019-04-20T23:27:18.150Z,12.10
2019-04-20T23:29:41.645Z,12.40
2019-04-20T23:32:11.915Z,11.48
2019-04-20T23:34:38.935Z,11.10
2019-04-20T23:37:08.751Z,11.55
2019-04-20T23:39:39.740Z,12.58
2019-04-20T23:42:06.676Z,11.95
2019-04-20T23:44:31.420Z,14.83
2019-04-20T23:47:04.531Z,11.90
2019-04-20T23:49:31.811Z,12.88
2019-04-20T23:52:16.663Z,12.00
2019-04-20T23:54:27.413Z,10.45
2019-04-20T23:56:51.506Z,11.90
2019-04-20T23:59:19.199Z,11.40
